This is the latest recevied weather packets stored in our database for station/object HA2SKA-1. If no packets are shown the sender has not sent any weather packets the latest 10 day(s).
| Time | Temp. | Humidity | Pressure | Rain* | Wind** | Luminosity | Snow |
|---|---|---|---|---|---|---|---|
| 1777686365 | 11.67° C | 55% | 1026.2 hPa | - | - | - | - |
| 1777685465 | 12.22° C | 54% | 1026.2 hPa | - | - | - | - |
| 1777684565 | 12.22° C | 53% | 1026.3 hPa | - | - | - | - |
| 1777683665 | 13.33° C | 49% | 1026.3 hPa | - | - | - | - |
| 1777682765 | 12.78° C | 51% | 1026.4 hPa | - | - | - | - |
| 1777681865 | 11.67° C | 53% | 1026.5 hPa | - | - | - | - |
| 1777680965 | 11.67° C | 52% | 1026.5 hPa | - | - | - | - |
| 1777680065 | 12.22° C | 50% | 1026.6 hPa | - | - | - | - |
| 1777679165 | 12.78° C | 50% | 1026.7 hPa | - | - | - | - |
| 1777678265 | 12.78° C | 50% | 1026.7 hPa | - | - | - | - |
| 1777677364 | 11.67° C | 53% | 1026.8 hPa | - | - | - | - |
| 1777676464 | 12.78° C | 50% | 1026.9 hPa | - | - | - | - |
| 1777675564 | 12.22° C | 51% | 1026.8 hPa | - | - | - | - |
| 1777674665 | 11.11° C | 55% | 1027 hPa | - | - | - | - |
| 1777673764 | 11.11° C | 55% | 1027 hPa | - | - | - | - |
| 1777672864 | 10.56° C | 59% | 1027 hPa | - | - | - | - |
| 1777671964 | 10° C | 60% | 1027 hPa | - | - | - | - |
| 1777671064 | 9.44° C | 63% | 1027 hPa | - | - | - | - |
| 1777670164 | 10° C | 60% | 1026.9 hPa | - | - | - | - |
| 1777669264 | 10° C | 60% | 1027 hPa | - | - | - | - |
| 1777668363 | 10° C | 60% | 1027.1 hPa | - | - | - | - |
| 1777667463 | 9.44° C | 63% | 1027.1 hPa | - | - | - | - |
| 1777666563 | 10.56° C | 56% | 1027.1 hPa | - | - | - | - |
| 1777665663 | 9.44° C | 63% | 1027 hPa | - | - | - | - |
| 1777664763 | 10° C | 60% | 1027 hPa | - | - | - | - |
* Rain since midnight (hover to see other rain measurements)
** Current wind speed in m/s (hover to see current wind gust speed)